Time;durP1;ratioP1;P1;durP2;ratioP2;P2;SDS_P1;SDS_P2;PMS_P1;PMS_P2;Temp;Humidity;BMP_temperature;BMP_pressure;BME280_temperature;BME280_humidity;BME280_pressure;Samples;Min_cycle;Max_cycle;Signal;HPM_P1;HPM_P2
2021/09/26 00:01:29;;;;;;;5.78;3.80;;;;;;;22.55;46.25;101122.44;4995334;28;20364;-62
2021/09/26 00:03:54;;;;;;;8.15;3.42;;;;;;;22.56;46.62;101121.38;4995593;28;20105;-62
2021/09/26 00:06:20;;;;;;;7.38;3.50;;;;;;;22.57;46.28;101124.94;4995242;28;20052;-62
2021/09/26 00:08:45;;;;;;;4.63;3.50;;;;;;;22.52;47.09;101117.38;4977487;28;20022;-62
2021/09/26 00:11:11;;;;;;;5.70;3.40;;;;;;;22.55;46.36;101111.50;4995220;28;20084;-62
2021/09/26 00:13:39;;;;;;;7.38;3.50;;;;;;;22.58;46.17;101116.53;4978194;28;20033;-63
2021/09/26 00:16:06;;;;;;;9.48;3.47;;;;;;;22.59;46.36;101123.69;4995004;28;20116;-62
2021/09/26 00:18:32;;;;;;;7.47;3.67;;;;;;;22.59;46.80;101123.69;4995052;28;20030;-63
2021/09/26 00:20:57;;;;;;;12.93;3.58;;;;;;;22.61;46.96;101123.50;4994885;28;20513;-62
2021/09/26 00:23:25;;;;;;;7.75;3.25;;;;;;;22.62;47.17;101128.75;4994699;28;20061;-63
2021/09/26 00:25:51;;;;;;;12.85;3.40;;;;;;;22.61;46.92;101127.06;4994784;28;20050;-62
2021/09/26 00:28:21;;;;;;;4.55;2.95;;;;;;;22.58;47.30;101116.53;4995013;28;20022;-62
2021/09/26 00:30:47;;;;;;;3.38;2.42;;;;;;;22.62;46.98;101122.44;4994847;28;20026;-62
2021/09/26 00:33:12;;;;;;;6.05;3.72;;;;;;;22.61;46.42;101124.34;4977698;28;20526;-62
2021/09/26 00:35:38;;;;;;;8.25;3.97;;;;;;;22.62;47.53;101127.91;4995077;28;20041;-63
2021/09/26 00:38:04;;;;;;;4.38;3.00;;;;;;;22.62;47.35;101126.03;4994852;28;20482;-62
2021/09/26 00:40:29;;;;;;;5.55;3.60;;;;;;;22.62;47.36;101115.09;4977537;28;20027;-62
2021/09/26 00:42:55;;;;;;;5.25;2.97;;;;;;;22.66;47.06;101128.41;4994642;28;20029;-62
2021/09/26 00:45:20;;;;;;;4.82;3.08;;;;;;;22.65;47.58;101122.09;4994744;28;20072;-62
2021/09/26 00:47:47;;;;;;;5.78;3.50;;;;;;;22.70;47.51;101121.50;4994773;28;20033;-62
2021/09/26 00:50:12;;;;;;;8.25;3.20;;;;;;;22.70;46.76;101113.31;4994291;28;20085;-62
2021/09/26 00:52:40;;;;;;;4.72;3.40;;;;;;;22.68;47.50;101109.91;4994322;28;20030;-62
2021/09/26 00:55:06;;;;;;;4.55;3.05;;;;;;;22.71;47.62;101113.09;4994292;28;20026;-62
2021/09/26 00:57:33;;;;;;;6.68;3.15;;;;;;;22.74;46.74;101112.69;4994338;28;20482;-62
2021/09/26 00:59:58;;;;;;;6.80;3.15;;;;;;;22.75;46.71;101114.38;4994618;28;20356;-62
2021/09/26 01:02:24;;;;;;;4.00;2.95;;;;;;;22.78;46.95;101113.16;4994161;28;20034;-63
2021/09/26 01:04:49;;;;;;;6.32;3.55;;;;;;;22.78;47.71;101097.56;4994042;28;20045;-62
2021/09/26 01:07:20;;;;;;;5.45;3.53;;;;;;;22.78;47.51;101104.94;4994042;28;20521;-62
2021/09/26 01:09:49;;;;;;;8.18;3.60;;;;;;;22.82;47.51;101100.75;4994455;28;20030;-62
2021/09/26 01:12:23;;;;;;;8.48;3.75;;;;;;;22.84;46.94;101107.69;4994098;28;20027;-62
2021/09/26 01:15:03;;;;;;;4.70;3.33;;;;;;;22.86;47.20;101102.91;4977205;28;20062;-62
2021/09/26 01:17:46;;;;;;;4.80;3.22;;;;;;;22.89;47.00;101101.66;4977166;28;20041;-62
2021/09/26 01:20:44;;;;;;;7.32;4.32;;;;;;;22.88;47.31;101091.75;4993472;28;20025;-62
2021/09/26 01:23:40;;;;;;;6.93;3.45;;;;;;;22.92;47.28;101099.31;4993198;28;20069;-62
2021/09/26 01:26:44;;;;;;;4.47;3.25;;;;;;;22.93;47.17;101097.44;4993672;28;20043;-62
2021/09/26 01:29:40;;;;;;;7.43;3.65;;;;;;;22.87;48.26;101101.81;4955118;28;20049;-62
2021/09/26 01:32:07;;;;;;;4.47;3.15;;;;;;;22.81;47.43;101099.09;4994044;28;20105;-62
2021/09/26 01:34:40;;;;;;;5.13;3.25;;;;;;;22.75;47.80;101095.28;4976456;28;20048;-62
2021/09/26 01:37:25;;;;;;;4.30;3.67;;;;;;;22.74;48.03;101090.00;4993696;28;20048;-62
2021/09/26 01:40:00;;;;;;;5.70;3.58;;;;;;;22.72;48.58;101087.47;4976937;28;20109;-62
2021/09/26 01:42:29;;;;;;;10.20;4.07;;;;;;;22.68;49.08;101079.88;4976290;28;20081;-62
2021/09/26 01:44:57;;;;;;;7.90;3.38;;;;;;;22.72;48.68;101090.22;4976782;28;20026;-62
2021/09/26 01:47:29;;;;;;;3.97;3.15;;;;;;;22.74;49.14;101081.78;4976337;28;20572;-62
2021/09/26 01:49:59;;;;;;;5.15;3.42;;;;;;;22.74;49.08;101079.06;4993460;28;20525;-62
2021/09/26 01:52:28;;;;;;;6.05;3.45;;;;;;;22.76;48.33;101082.44;4993104;28;20506;-62
2021/09/26 01:54:55;;;;;;;5.38;3.40;;;;;;;22.77;48.48;101081.41;4993529;28;20022;-62
2021/09/26 01:57:21;;;;;;;4.82;3.22;;;;;;;22.79;49.45;101084.75;4993685;28;20033;-62
2021/09/26 01:59:49;;;;;;;7.25;2.83;;;;;;;22.82;48.18;101079.75;4976315;28;20026;-62
2021/09/26 02:02:19;;;;;;;6.97;3.17;;;;;;;22.86;49.19;101083.78;4993881;28;20486;-62
2021/09/26 02:04:59;;;;;;;9.25;4.10;;;;;;;22.86;49.13;101074.72;4993508;28;20018;-63
2021/09/26 02:07:30;;;;;;;7.55;3.47;;;;;;;22.91;48.25;101088.63;4976590;28;20422;-63
2021/09/26 02:09:56;;;;;;;7.07;3.88;;;;;;;22.90;48.99;101081.44;4976337;28;20057;-62
2021/09/26 02:12:21;;;;;;;5.63;3.70;;;;;;;22.96;49.37;101091.56;4960313;28;20058;-62
2021/09/26 02:14:48;;;;;;;6.30;3.90;;;;;;;22.96;49.02;101091.56;4976352;28;20093;-62
2021/09/26 02:17:14;;;;;;;5.88;4.13;;;;;;;23.02;48.36;101093.50;4976399;28;20092;-62
2021/09/26 02:19:40;;;;;;;11.57;4.05;;;;;;;23.05;48.22;101101.28;4976733;28;20026;-62
2021/09/26 02:22:07;;;;;;;7.75;4.75;;;;;;;23.08;48.49;101096.28;4976223;28;20049;-62
2021/09/26 02:24:34;;;;;;;6.55;4.13;;;;;;;23.09;48.36;101094.34;4993409;28;20072;-62
2021/09/26 02:26:59;;;;;;;7.53;4.10;;;;;;;23.09;49.07;101080.69;4973072;28;20519;-62
2021/09/26 02:29:25;;;;;;;7.55;3.97;;;;;;;23.12;48.36;101092.06;4972950;28;20023;-64
2021/09/26 02:31:50;;;;;;;7.78;3.58;;;;;;;23.15;48.50;101090.81;4973111;28;20446;-62
2021/09/26 02:34:16;;;;;;;8.32;4.47;;;;;;;23.11;48.27;101084.09;4976775;28;20386;-62
2021/09/26 02:36:41;;;;;;;8.05;4.35;;;;;;;23.18;49.38;101095.88;4977418;28;20486;-63
2021/09/26 02:39:07;;;;;;;7.30;3.90;;;;;;;23.17;49.40;101091.47;4977578;28;20486;-62
2021/09/26 02:41:40;;;;;;;6.00;4.35;;;;;;;23.19;48.83;101094.84;4977135;28;20479;-62
2021/09/26 02:44:21;;;;;;;11.10;3.83;;;;;;;23.18;48.85;101101.34;4976376;28;20026;-62
2021/09/26 02:46:53;;;;;;;8.35;4.13;;;;;;;23.19;48.49;101092.94;4976316;28;20086;-62
2021/09/26 02:49:18;;;;;;;7.30;3.57;;;;;;;23.22;48.97;101094.44;4976147;28;20475;-62
2021/09/26 02:51:44;;;;;;;11.55;4.53;;;;;;;23.23;48.88;101098.81;4977503;28;20077;-62
2021/09/26 02:54:10;;;;;;;8.38;4.70;;;;;;;23.25;49.52;101095.91;4976281;28;20030;-62
2021/09/26 02:56:35;;;;;;;7.38;4.28;;;;;;;23.26;49.37;101092.94;4959685;28;20034;-62
2021/09/26 02:59:02;;;;;;;5.57;4.10;;;;;;;23.23;49.27;101085.16;4977204;28;20031;-62
2021/09/26 03:01:28;;;;;;;5.10;3.88;;;;;;;23.28;49.38;101096.34;4977051;28;20063;-62
2021/09/26 03:04:03;;;;;;;6.15;3.95;;;;;;;23.29;49.11;101100.75;4976866;28;20545;-62
2021/09/26 03:06:29;;;;;;;8.30;3.55;;;;;;;23.26;49.46;101092.09;4977003;28;20054;-62
2021/09/26 03:08:55;;;;;;;5.20;3.53;;;;;;;23.29;49.85;101092.53;4976739;28;20070;-62
2021/09/26 03:11:20;;;;;;;8.20;3.95;;;;;;;23.31;49.48;101095.91;4976751;28;20467;-62
2021/09/26 03:13:46;;;;;;;5.65;3.67;;;;;;;23.27;49.25;101083.72;4976849;28;20034;-62
2021/09/26 03:16:11;;;;;;;7.70;4.28;;;;;;;23.33;49.94;101093.81;4976546;28;20562;-62
2021/09/26 03:18:36;;;;;;;7.65;4.20;;;;;;;23.30;49.28;101086.03;4976717;28;20031;-62
2021/09/26 03:21:02;;;;;;;7.60;4.38;;;;;;;23.34;49.40;101092.75;4976782;28;20090;-62
2021/09/26 03:23:27;;;;;;;5.47;4.38;;;;;;;23.34;49.51;101095.50;4976642;28;20077;-62
2021/09/26 03:25:52;;;;;;;5.85;4.03;;;;;;;23.34;50.02;101100.97;4984474;28;20072;-62
2021/09/26 03:28:18;;;;;;;8.65;5.32;;;;;;;23.33;49.83;101092.97;4995881;28;20027;-62
2021/09/26 03:30:44;;;;;;;8.55;4.15;;;;;;;23.33;49.96;101092.97;4995850;28;20026;-62
2021/09/26 03:33:09;;;;;;;6.93;4.32;;;;;;;23.30;49.61;101091.50;4995867;28;20029;-62
2021/09/26 03:35:37;;;;;;;10.45;4.53;;;;;;;23.32;50.23;101092.13;4978716;28;20044;-62
2021/09/26 03:38:02;;;;;;;9.63;4.55;;;;;;;23.34;50.35;101090.03;4978623;28;20486;-62
2021/09/26 03:40:28;;;;;;;8.73;5.13;;;;;;;23.35;50.40;101085.41;4995734;28;20055;-62
2021/09/26 03:42:53;;;;;;;9.23;4.50;;;;;;;23.36;49.95;101082.47;4978250;28;20054;-62
2021/09/26 03:45:18;;;;;;;7.80;4.85;;;;;;;23.37;50.47;101081.41;4995135;28;20029;-62
2021/09/26 03:47:44;;;;;;;5.28;4.18;;;;;;;23.37;49.41;101077.84;4978322;28;20022;-63
2021/09/26 03:50:10;;;;;;;8.50;4.93;;;;;;;23.38;50.42;101080.41;4978303;28;20026;-62
2021/09/26 03:52:35;;;;;;;6.70;4.15;;;;;;;23.38;49.38;101077.66;4978383;28;20382;-62
2021/09/26 03:55:03;;;;;;;10.88;4.68;;;;;;;23.38;49.39;101074.09;4995685;28;20161;-62
2021/09/26 03:57:28;;;;;;;11.05;5.53;;;;;;;23.37;49.60;101073.22;4995543;28;20498;-61
2021/09/26 03:59:54;;;;;;;7.57;4.50;;;;;;;23.39;49.79;101075.78;4995283;28;20022;-61
2021/09/26 04:02:19;;;;;;;7.38;4.50;;;;;;;23.39;50.50;101070.31;4995761;28;20027;-62
2021/09/26 04:04:44;;;;;;;8.45;4.60;;;;;;;23.38;50.30;101064.00;4995273;28;20061;-62
2021/09/26 04:07:10;;;;;;;5.90;4.20;;;;;;;23.38;49.77;101069.47;4995459;28;20029;-61
2021/09/26 04:09:35;;;;;;;7.55;4.13;;;;;;;23.44;49.80;101068.66;4995374;28;20033;-61
2021/09/26 04:12:01;;;;;;;7.18;4.28;;;;;;;23.47;50.46;101062.78;4978375;28;20193;-61
2021/09/26 04:14:26;;;;;;;8.23;4.60;;;;;;;23.54;50.19;101057.28;4977906;28;20026;-62
2021/09/26 04:16:52;;;;;;;5.88;4.10;;;;;;;23.60;51.19;101062.78;4977738;28;20034;-62
2021/09/26 04:19:18;;;;;;;6.28;4.30;;;;;;;23.67;51.08;101058.16;4995074;28;20429;-61
2021/09/26 04:21:44;;;;;;;10.25;3.90;;;;;;;23.74;50.46;101053.53;4994872;28;20061;-61
2021/09/26 04:24:13;;;;;;;7.25;3.83;;;;;;;23.84;50.51;101069.56;4977793;28;20402;-61
2021/09/26 04:26:39;;;;;;;6.95;4.28;;;;;;;23.92;50.63;101063.88;4994622;28;20454;-61
2021/09/26 04:29:05;;;;;;;6.88;4.18;;;;;;;23.99;51.30;101072.91;4994652;28;20026;-62
2021/09/26 04:31:30;;;;;;;7.20;3.95;;;;;;;24.04;50.63;101069.53;4994883;28;20030;-61
2021/09/26 04:33:56;;;;;;;5.68;3.97;;;;;;;24.13;51.46;101079.25;4994551;28;20415;-62
2021/09/26 04:36:21;;;;;;;7.90;3.85;;;;;;;24.18;50.98;101072.09;4994759;28;20062;-61
2021/09/26 04:38:46;;;;;;;8.05;4.10;;;;;;;24.25;51.38;101066.59;4994947;28;20050;-62
2021/09/26 04:41:12;;;;;;;8.32;4.32;;;;;;;24.29;51.15;101062.38;4994525;28;20101;-62
2021/09/26 04:43:37;;;;;;;7.13;3.95;;;;;;;24.32;51.48;101071.00;4994877;28;20030;-61
2021/09/26 04:46:02;;;;;;;6.75;3.95;;;;;;;24.35;51.21;101072.47;4994872;28;20095;-62
2021/09/26 04:48:28;;;;;;;7.20;4.03;;;;;;;24.44;51.88;101071.22;4994768;28;20029;-61
2021/09/26 04:50:53;;;;;;;7.50;4.55;;;;;;;24.45;51.62;101072.91;4994760;28;20415;-61
2021/09/26 04:53:19;;;;;;;8.52;4.25;;;;;;;24.51;51.22;101061.06;4994607;28;20022;-61
2021/09/26 04:55:44;;;;;;;7.13;4.40;;;;;;;24.57;51.51;101065.69;4994007;28;20541;-61
2021/09/26 04:58:10;;;;;;;6.80;4.28;;;;;;;24.65;50.86;101067.38;4994682;28;20026;-62
2021/09/26 05:00:36;;;;;;;7.35;4.68;;;;;;;24.67;51.20;101068.84;4994627;28;20064;-61
2021/09/26 05:03:02;;;;;;;7.13;3.60;;;;;;;24.69;51.51;101065.88;4994310;28;20026;-61
2021/09/26 05:05:27;;;;;;;8.68;4.10;;;;;;;24.72;51.39;101063.56;4994123;28;20034;-61
2021/09/26 05:07:53;;;;;;;5.82;3.83;;;;;;;24.75;51.31;101060.38;4993986;28;20026;-61
2021/09/26 05:10:18;;;;;;;6.30;3.75;;;;;;;24.76;51.36;101064.78;4994131;28;20471;-61
2021/09/26 05:12:43;;;;;;;6.43;4.15;;;;;;;24.79;51.07;101069.88;4993984;28;20030;-62
2021/09/26 05:15:09;;;;;;;8.27;4.60;;;;;;;24.76;50.84;101062.03;4994178;28;20033;-61
2021/09/26 05:17:35;;;;;;;8.43;3.92;;;;;;;24.74;51.32;101066.91;4993900;28;20496;-61
2021/09/26 05:20:02;;;;;;;5.88;3.88;;;;;;;24.77;50.83;101058.25;4993796;28;20035;-62
2021/09/26 05:22:28;;;;;;;6.28;3.75;;;;;;;24.81;51.19;101062.28;4976500;28;20102;-61
2021/09/26 05:24:53;;;;;;;6.00;3.50;;;;;;;24.81;51.19;101062.28;4993661;28;20445;-61
2021/09/26 05:27:19;;;;;;;4.78;3.50;;;;;;;24.78;51.51;101059.94;4993881;28;20049;-62
2021/09/26 05:29:44;;;;;;;8.93;3.88;;;;;;;24.79;50.99;101061.66;4993761;28;20030;-62
2021/09/26 05:32:10;;;;;;;10.80;3.90;;;;;;;24.80;51.09;101063.34;4994137;28;20368;-62
2021/09/26 05:34:36;;;;;;;5.32;3.65;;;;;;;24.79;51.34;101069.88;4993944;28;20030;-62
2021/09/26 05:37:02;;;;;;;7.50;3.97;;;;;;;24.82;51.15;101074.94;4960810;28;20117;-61
2021/09/26 05:39:28;;;;;;;8.98;4.20;;;;;;;24.81;51.05;101070.53;4993767;28;20019;-61
2021/09/26 05:41:54;;;;;;;7.25;3.28;;;;;;;24.82;50.94;101072.19;4976648;28;20018;-62
2021/09/26 05:44:19;;;;;;;6.28;4.50;;;;;;;24.80;51.07;101074.31;4993972;28;20343;-62
2021/09/26 05:46:45;;;;;;;8.15;4.63;;;;;;;24.85;50.61;101079.97;4993932;28;20030;-61
2021/09/26 05:49:11;;;;;;;8.45;4.30;;;;;;;24.86;51.27;101098.13;4994001;28;20022;-61
2021/09/26 05:51:36;;;;;;;7.93;4.10;;;;;;;24.80;51.07;101088.00;4993543;28;20018;-62
2021/09/26 05:54:02;;;;;;;5.15;3.75;;;;;;;24.87;51.40;101094.28;4993516;28;20041;-61
2021/09/26 05:56:27;;;;;;;7.22;4.68;;;;;;;24.87;50.65;101094.28;4993954;28;20094;-61
2021/09/26 05:58:53;;;;;;;5.65;4.13;;;;;;;24.92;50.45;101107.38;4993895;28;20025;-62
2021/09/26 06:01:18;;;;;;;5.78;3.78;;;;;;;24.93;50.62;101098.06;4993806;28;20537;-62
2021/09/26 06:03:44;;;;;;;15.15;4.38;;;;;;;24.96;50.96;101094.09;4993675;28;20455;-62
2021/09/26 06:06:09;;;;;;;9.75;4.55;;;;;;;25.05;51.17;101095.50;4993644;28;20026;-62
2021/09/26 06:08:34;;;;;;;4.97;3.90;;;;;;;25.11;50.80;101091.91;5014518;28;20474;-61
2021/09/26 06:11:00;;;;;;;8.65;4.07;;;;;;;25.20;50.47;101099.66;5016987;28;20076;-61
2021/09/26 06:13:25;;;;;;;6.68;3.67;;;;;;;25.30;50.65;101107.41;5016927;28;20389;-62
2021/09/26 06:15:51;;;;;;;6.18;4.63;;;;;;;25.42;50.32;101102.94;5016604;28;20053;-63
2021/09/26 06:18:18;;;;;;;7.53;4.85;;;;;;;25.53;50.11;101105.00;5016685;28;20470;-62
2021/09/26 06:20:43;;;;;;;9.00;4.03;;;;;;;25.67;50.37;101112.09;5016854;28;20532;-61
2021/09/26 06:23:09;;;;;;;7.43;3.85;;;;;;;25.78;50.29;101107.78;4999302;28;20032;-62
2021/09/26 06:25:34;;;;;;;7.50;3.97;;;;;;;25.87;50.13;101107.31;4995686;28;20053;-62
2021/09/26 06:28:00;;;;;;;5.97;4.32;;;;;;;25.98;49.50;101103.84;4997086;28;20045;-62
2021/09/26 06:30:25;;;;;;;6.05;3.45;;;;;;;26.11;50.04;101102.03;4996332;28;20459;-62
2021/09/26 06:32:50;;;;;;;6.75;3.75;;;;;;;26.17;49.80;101102.03;4997022;28;20105;-62
2021/09/26 06:35:16;;;;;;;8.35;4.00;;;;;;;26.29;49.18;101107.63;4996966;28;20054;-62
2021/09/26 06:37:42;;;;;;;7.05;4.25;;;;;;;26.43;49.59;101111.94;5012221;28;20482;-62
2021/09/26 06:40:09;;;;;;;8.00;4.55;;;;;;;26.54;49.80;101109.31;4996127;28;20079;-61
2021/09/26 06:42:34;;;;;;;7.18;3.70;;;;;;;26.65;49.40;101115.09;4996868;28;20031;-62
2021/09/26 06:45:00;;;;;;;6.72;4.40;;;;;;;26.73;49.20;101112.91;4996839;28;20053;-62
2021/09/26 06:47:25;;;;;;;8.15;4.30;;;;;;;26.87;49.31;101125.47;4996613;28;20034;-61
2021/09/26 06:49:52;;;;;;;6.00;3.95;;;;;;;26.96;49.15;101124.09;4996767;28;20445;-61
2021/09/26 06:52:17;;;;;;;6.32;3.78;;;;;;;27.05;49.17;101128.19;4995978;28;20033;-62
2021/09/26 06:54:43;;;;;;;13.15;4.72;;;;;;;27.13;48.51;101141.66;4996796;28;20105;-62
2021/09/26 06:57:09;;;;;;;7.82;3.72;;;;;;;27.19;48.96;101129.72;4996835;28;20033;-62
2021/09/26 06:59:35;;;;;;;7.65;3.95;;;;;;;27.31;48.44;101145.44;4996875;28;20089;-62
2021/09/26 07:02:00;;;;;;;8.77;4.07;;;;;;;27.35;48.58;101132.94;4996439;28;20056;-62
2021/09/26 07:04:25;;;;;;;5.57;3.72;;;;;;;27.48;47.64;101138.28;4996510;28;20084;-61
2021/09/26 07:06:52;;;;;;;6.68;3.97;;;;;;;27.56;47.75;101146.22;4996564;28;20026;-62
2021/09/26 07:09:17;;;;;;;6.05;3.72;;;;;;;27.64;48.57;101143.97;4996011;28;20034;-62
2021/09/26 07:11:44;;;;;;;6.78;3.80;;;;;;;27.70;47.82;101136.69;4996319;28;20034;-61
2021/09/26 07:14:09;;;;;;;7.13;3.47;;;;;;;27.79;48.23;101146.31;4996253;28;20026;-61
2021/09/26 07:16:34;;;;;;;6.57;3.50;;;;;;;27.91;47.47;101151.84;4995919;28;20049;-61
2021/09/26 07:19:00;;;;;;;5.97;4.00;;;;;;;28.04;48.00;101149.78;4995288;28;20073;-62
2021/09/26 07:21:25;;;;;;;7.20;3.50;;;;;;;28.15;46.61;101151.72;4995996;28;20022;-61
2021/09/26 07:23:51;;;;;;;6.45;4.03;;;;;;;28.26;46.50;101152.81;4996037;28;20096;-61
2021/09/26 07:26:16;;;;;;;4.72;3.35;;;;;;;28.37;46.83;101148.38;5005329;28;20124;-62
2021/09/26 07:28:41;;;;;;;5.90;3.47;;;;;;;28.52;46.86;101141.34;5015663;28;20385;-62
2021/09/26 07:31:07;;;;;;;5.32;3.70;;;;;;;28.72;46.71;101146.50;5015929;28;20022;-61
2021/09/26 07:33:32;;;;;;;4.28;3.38;;;;;;;28.86;46.27;101142.44;5015555;28;20025;-61
2021/09/26 07:35:58;;;;;;;10.50;3.65;;;;;;;29.03;46.25;101148.88;5015751;28;20079;-61
2021/09/26 07:38:23;;;;;;;4.75;3.33;;;;;;;29.22;45.29;101147.66;5015579;28;20022;-62
2021/09/26 07:40:48;;;;;;;7.65;3.63;;;;;;;29.28;45.72;101141.19;5015508;28;20470;-62
2021/09/26 07:43:14;;;;;;;6.78;3.40;;;;;;;29.41;45.76;101151.09;5015234;28;20033;-62
2021/09/26 07:45:39;;;;;;;5.18;3.22;;;;;;;29.51;44.69;101151.28;5015592;28;20025;-61
2021/09/26 07:48:05;;;;;;;4.43;3.10;;;;;;;29.64;45.28;101139.13;5015143;28;20036;-62
2021/09/26 07:50:31;;;;;;;4.80;3.15;;;;;;;29.79;44.80;101142.16;5015382;28;20022;-62
2021/09/26 07:52:57;;;;;;;6.63;3.85;;;;;;;29.91;44.32;101141.06;5015418;28;20486;-62
2021/09/26 07:55:22;;;;;;;5.97;3.55;;;;;;;30.04;44.39;101145.41;5014989;28;20034;-62
2021/09/26 07:57:48;;;;;;;9.13;3.70;;;;;;;30.18;43.91;101146.75;5015045;28;20033;-62
2021/09/26 08:00:14;;;;;;;5.88;3.25;;;;;;;30.33;43.85;101144.25;5015178;28;20025;-61
2021/09/26 08:02:40;;;;;;;6.22;3.60;;;;;;;30.46;43.64;101148.63;5015092;28;20022;-62
2021/09/26 08:05:07;;;;;;;7.18;3.47;;;;;;;30.51;43.38;101154.28;5014829;28;20426;-62
2021/09/26 08:07:33;;;;;;;4.50;3.05;;;;;;;30.67;43.43;101161.72;5014727;28;20473;-61
2021/09/26 08:09:59;;;;;;;4.85;2.92;;;;;;;30.83;43.26;101160.00;5014884;28;20394;-62
2021/09/26 08:12:24;;;;;;;5.53;3.97;;;;;;;30.97;43.19;101158.56;5014869;28;20022;-62
2021/09/26 08:14:50;;;;;;;5.20;3.42;;;;;;;31.11;43.38;101170.94;5015048;28;20084;-62
2021/09/26 08:17:15;;;;;;;4.43;3.45;;;;;;;31.24;42.77;101166.97;5014710;28;20041;-62
2021/09/26 08:19:40;;;;;;;3.92;3.05;;;;;;;31.40;42.34;101166.91;4997389;28;20366;-61
2021/09/26 08:22:07;;;;;;;4.53;3.53;;;;;;;31.51;42.19;101171.50;5014782;28;20112;-62
2021/09/26 08:24:33;;;;;;;5.70;3.58;;;;;;;31.64;42.05;101173.88;5014295;28;20033;-62
2021/09/26 08:27:00;;;;;;;6.90;3.00;;;;;;;31.71;41.76;101177.25;5014520;28;20077;-62
2021/09/26 08:29:25;;;;;;;7.68;3.67;;;;;;;31.68;41.16;101185.28;5014229;28;20072;-62
2021/09/26 08:31:51;;;;;;;4.88;3.83;;;;;;;31.78;41.34;101184.53;5014559;28;20021;-62
2021/09/26 08:34:16;;;;;;;5.47;3.67;;;;;;;31.64;41.88;101184.09;5014280;28;20064;-62
2021/09/26 08:36:42;;;;;;;6.60;3.42;;;;;;;31.85;41.13;101186.03;5014423;28;20041;-61
2021/09/26 08:39:07;;;;;;;4.88;3.70;;;;;;;32.04;41.33;101183.75;5014317;28;20029;-62
2021/09/26 08:41:33;;;;;;;5.15;4.30;;;;;;;32.09;40.59;101183.78;4996986;28;20386;-62
2021/09/26 08:43:59;;;;;;;8.15;3.58;;;;;;;32.18;40.82;101185.00;4997039;28;20050;-62
2021/09/26 08:46:25;;;;;;;6.20;3.78;;;;;;;32.37;39.68;101193.75;4996688;28;20029;-62
2021/09/26 08:48:51;;;;;;;4.75;3.28;;;;;;;32.51;39.69;101186.66;5014020;28;20108;-62
2021/09/26 08:51:17;;;;;;;5.35;3.47;;;;;;;32.66;39.51;101187.66;5014071;28;20498;-61
2021/09/26 08:53:42;;;;;;;5.30;3.50;;;;;;;32.74;39.69;101195.50;5014350;28;20021;-61
2021/09/26 08:56:08;;;;;;;6.43;3.55;;;;;;;32.86;39.58;101180.56;5013936;28;20424;-60
2021/09/26 08:58:33;;;;;;;4.70;3.33;;;;;;;32.95;39.73;101184.50;4996669;28;20578;-60
2021/09/26 09:01:00;;;;;;;5.93;3.92;;;;;;;33.12;38.96;101185.19;5013955;28;20022;-60
2021/09/26 09:03:25;;;;;;;4.35;3.25;;;;;;;32.97;38.69;101187.88;5014075;28;20021;-60
2021/09/26 09:05:52;;;;;;;8.52;4.63;;;;;;;33.13;38.89;101187.72;4996548;28;20033;-59
2021/09/26 09:08:19;;;;;;;4.90;3.53;;;;;;;33.29;38.66;101192.22;5014237;28;20022;-60
2021/09/26 09:10:45;;;;;;;6.57;4.07;;;;;;;33.43;38.10;101192.56;5013653;28;20022;-61
2021/09/26 09:13:13;;;;;;;6.97;3.67;;;;;;;33.60;38.84;101193.22;5014034;28;20120;-60
2021/09/26 09:15:41;;;;;;;5.50;3.25;;;;;;;33.75;38.52;101201.59;5014167;28;20447;-60
2021/09/26 09:18:06;;;;;;;5.82;3.75;;;;;;;33.83;38.41;101198.31;5013760;28;20026;-60
2021/09/26 09:20:34;;;;;;;3.90;3.13;;;;;;;33.96;38.22;101202.50;5013879;28;20492;-60
2021/09/26 09:23:14;;;;;;;5.50;3.42;;;;;;;34.15;37.67;101213.94;5014044;28;20032;-60
2021/09/26 09:25:46;;;;;;;5.13;3.63;;;;;;;34.39;36.89;101209.53;5013692;28;20128;-60
2021/09/26 09:28:13;;;;;;;5.03;3.53;;;;;;;34.66;36.41;101217.63;4996713;28;20259;-60
2021/09/26 09:30:42;;;;;;;7.70;3.53;;;;;;;35.28;35.68;101214.50;5013743;28;20033;-60
2021/09/26 09:33:09;;;;;;;8.80;3.75;;;;;;;36.74;33.94;101206.09;5013924;28;20030;-61
2021/09/26 09:35:57;;;;;;;7.05;3.95;;;;;;;38.03;32.65;101208.78;5013433;28;20104;-60
2021/09/26 09:38:28;;;;;;;6.70;4.40;;;;;;;37.10;33.86;101209.41;5013683;28;20069;-60
2021/09/26 09:40:55;;;;;;;5.57;3.90;;;;;;;37.03;34.02;101213.66;5013471;28;20022;-60
2021/09/26 09:43:21;;;;;;;5.50;3.97;;;;;;;37.09;34.06;101227.28;4999325;28;20062;-61
2021/09/26 09:45:53;;;;;;;5.20;4.15;;;;;;;37.21;33.85;101221.28;5017433;28;20030;-60
2021/09/26 09:48:23;;;;;;;5.88;3.58;;;;;;;37.44;33.41;101242.03;5017303;28;20018;-61
2021/09/26 09:51:08;;;;;;;4.78;4.03;;;;;;;37.45;33.08;101238.09;5017285;28;20087;-60
2021/09/26 09:53:45;;;;;;;6.00;3.72;;;;;;;37.48;32.65;101232.72;4999914;28;20417;-60
2021/09/26 09:56:22;;;;;;;5.72;3.35;;;;;;;37.64;32.04;101236.16;5017423;28;20037;-61
2021/09/26 09:58:48;;;;;;;6.78;3.67;;;;;;;37.83;32.55;101234.25;5017458;28;20022;-60
2021/09/26 10:01:27;;;;;;;6.35;3.67;;;;;;;38.02;32.31;101232.31;5017321;28;20033;-60
2021/09/26 10:03:54;;;;;;;4.65;3.50;;;;;;;38.18;32.29;101225.34;5017362;28;20026;-61
2021/09/26 10:06:19;;;;;;;4.15;2.72;;;;;;;38.41;31.69;101224.47;5017286;28;20087;-60
2021/09/26 10:08:45;;;;;;;3.67;3.13;;;;;;;38.20;32.13;101227.84;5016993;28;20495;-61
2021/09/26 10:11:10;;;;;;;5.18;3.40;;;;;;;37.37;32.58;101235.91;5017103;28;20030;-60
2021/09/26 10:13:36;;;;;;;9.20;2.90;;;;;;;37.12;32.56;101231.44;5016996;28;20056;-60
2021/09/26 10:16:06;;;;;;;4.15;2.92;;;;;;;36.69;32.99;101230.44;4999666;28;20038;-60
2021/09/26 10:18:33;;;;;;;5.05;2.78;;;;;;;36.08;33.60;101225.31;4999362;28;20076;-60
2021/09/26 10:20:59;;;;;;;5.28;2.70;;;;;;;35.61;34.38;101241.72;5016741;28;20037;-60
2021/09/26 10:23:24;;;;;;;3.45;2.50;;;;;;;35.16;34.36;101234.31;4998965;28;20407;-60
2021/09/26 10:25:50;;;;;;;4.90;2.80;;;;;;;34.73;34.38;101230.16;5016811;28;20046;-60
2021/09/26 10:28:17;;;;;;;6.50;3.05;;;;;;;34.36;34.61;101240.72;5016677;28;20025;-60
2021/09/26 10:30:43;;;;;;;4.25;2.42;;;;;;;34.09;35.18;101240.13;4999238;28;20123;-60
2021/09/26 10:33:09;;;;;;;3.40;2.42;;;;;;;33.74;34.99;101238.88;5016866;28;20182;-60
2021/09/26 10:35:35;;;;;;;3.45;2.13;;;;;;;33.42;35.49;101245.66;5016672;28;20053;-60
2021/09/26 10:38:00;;;;;;;3.08;2.10;;;;;;;33.16;35.76;101241.88;4983109;28;20029;-60
2021/09/26 10:40:26;;;;;;;4.63;1.85;;;;;;;32.96;36.51;101248.09;5016573;28;20050;-59
2021/09/26 10:42:51;;;;;;;3.40;2.33;;;;;;;32.72;35.79;101236.53;4999167;28;20022;-60
2021/09/26 10:45:24;;;;;;;2.13;1.85;;;;;;;32.57;36.10;101247.53;5016460;28;20457;-60
2021/09/26 10:47:54;;;;;;;2.53;1.70;;;;;;;32.38;36.76;101246.22;5016845;28;20465;-60
2021/09/26 10:50:20;;;;;;;5.38;2.22;;;;;;;32.23;36.35;101254.38;5016110;28;20022;-60
2021/09/26 10:52:50;;;;;;;3.65;2.00;;;;;;;32.05;37.30;101257.53;5016074;28;20172;-60
2021/09/26 10:55:21;;;;;;;2.95;1.95;;;;;;;31.85;37.37;101257.25;5015851;28;20046;-60
2021/09/26 10:57:53;;;;;;;2.65;1.60;;;;;;;31.66;37.34;101259.50;5016387;28;20033;-59
2021/09/26 11:00:44;;;;;;;4.38;1.73;;;;;;;31.46;37.45;101262.84;5016100;28;20025;-60
2021/09/26 11:03:12;;;;;;;5.70;1.95;;;;;;;31.29;37.85;101256.50;5009084;28;20038;-61
2021/09/26 11:05:48;;;;;;;6.70;1.83;;;;;;;31.14;38.07;101257.09;5016202;28;20026;-61
2021/09/26 11:08:16;;;;;;;3.10;1.42;;;;;;;30.98;37.99;101269.03;5016252;28;20096;-63
2021/09/26 11:10:48;;;;;;;2.67;1.80;;;;;;;30.82;38.06;101261.53;4998586;28;20057;-62
2021/09/26 11:13:25;;;;;;;2.47;1.63;;;;;;;30.74;38.61;101266.69;5015803;28;20026;-62
2021/09/26 11:16:08;;;;;;;6.88;1.30;;;;;;;30.61;38.45;101267.84;5015680;28;20034;-61
2021/09/26 11:18:42;;;;;;;3.30;1.65;;;;;;;30.50;38.71;101265.97;5016085;28;20028;-61
2021/09/26 11:21:08;;;;;;;5.18;2.22;;;;;;;30.46;38.65;101264.78;5015772;28;20041;-62
2021/09/26 11:23:35;;;;;;;1.92;1.52;;;;;;;30.41;38.78;101257.25;4998331;28;20482;-61
2021/09/26 11:26:01;;;;;;;3.72;1.67;;;;;;;30.39;39.15;101259.44;4995210;28;20054;-62